Time;durP1;ratioP1;P1;durP2;ratioP2;P2;SDS_P1;SDS_P2;PMS_P1;PMS_P2;Temp;Humidity;BMP_temperature;BMP_pressure;BME280_temperature;BME280_humidity;BME280_pressure;Samples;Min_cycle;Max_cycle;Signal;HPM_P1;HPM_P2
2024/03/31 00:00:30;;;;;;;81.47;16.85;;;;;;;;;;6095109;23;20013;-80
2024/03/31 00:02:56;;;;;;;86.55;18.23;;;;;;;;;;6119402;23;20025;-80
2024/03/31 00:05:21;;;;;;;76.78;16.95;;;;;;;;;;6095631;23;20027;-80
2024/03/31 00:07:47;;;;;;;86.20;15.82;;;;;;;;;;6119337;23;19994;-78
2024/03/31 00:10:13;;;;;;;80.72;16.13;;;;;;;;;;6119515;23;20021;-79
2024/03/31 00:12:42;;;;;;;81.90;18.55;;;;;;;;;;6119145;23;19991;-79
2024/03/31 00:15:08;;;;;;;88.75;17.23;;;;;;;;;;6118553;23;20027;-79
2024/03/31 00:17:34;;;;;;;88.25;19.13;;;;;;;;;;6095208;23;20003;-79
2024/03/31 00:20:00;;;;;;;81.55;17.55;;;;;;;;;;6091429;23;20035;-79
2024/03/31 00:22:25;;;;;;;78.47;17.08;;;;;;;;;;6071374;23;20006;-79
2024/03/31 00:24:51;;;;;;;86.47;18.90;;;;;;;;;;6070688;23;20314;-79
2024/03/31 00:27:16;;;;;;;82.78;15.88;;;;;;;;;;6068076;23;20517;-79
2024/03/31 00:29:42;;;;;;;74.40;17.13;;;;;;;;;;6067903;23;20018;-79
2024/03/31 00:32:07;;;;;;;68.40;17.52;;;;;;;;;;6091470;23;20011;-79
2024/03/31 00:34:33;;;;;;;72.95;17.50;;;;;;;;;;6067019;23;20109;-80
2024/03/31 00:36:58;;;;;;;91.30;16.75;;;;;;;;;;6090965;23;20007;-79
2024/03/31 00:39:24;;;;;;;63.95;15.93;;;;;;;;;;6091181;23;20010;-79
2024/03/31 00:41:50;;;;;;;74.85;15.65;;;;;;;;;;6066900;23;20424;-79
2024/03/31 00:44:15;;;;;;;78.82;16.52;;;;;;;;;;6066617;23;20018;-79
2024/03/31 00:46:41;;;;;;;83.40;19.23;;;;;;;;;;6090786;23;20011;-79
2024/03/31 00:49:06;;;;;;;75.60;18.05;;;;;;;;;;6066332;23;20010;-79
2024/03/31 00:51:32;;;;;;;62.22;16.45;;;;;;;;;;6042576;23;20023;-81
2024/03/31 00:53:57;;;;;;;83.55;16.15;;;;;;;;;;6066204;23;20445;-78
2024/03/31 00:56:23;;;;;;;92.90;17.20;;;;;;;;;;6090732;23;20023;-80
2024/03/31 00:58:49;;;;;;;74.13;16.48;;;;;;;;;;6090486;23;20419;-79
2024/03/31 01:01:14;;;;;;;87.13;17.95;;;;;;;;;;6066018;23;20015;-79
2024/03/31 01:03:40;;;;;;;76.82;16.77;;;;;;;;;;6065850;23;20484;-79
2024/03/31 01:06:18;;;;;;;82.97;18.10;;;;;;;;;;6065748;23;20015;-79
2024/03/31 01:08:44;;;;;;;93.82;18.63;;;;;;;;;;6090624;23;20441;-80
2024/03/31 01:11:10;;;;;;;85.75;17.05;;;;;;;;;;6092213;23;20018;-80
2024/03/31 01:13:36;;;;;;;80.25;16.40;;;;;;;;;;6079271;23;20044;-80
2024/03/31 01:16:05;;;;;;;88.63;17.60;;;;;;;;;;6104849;23;20322;-80
2024/03/31 01:18:32;;;;;;;77.38;15.40;;;;;;;;;;6096116;23;20003;-79
2024/03/31 01:20:57;;;;;;;71.03;15.60;;;;;;;;;;6092303;23;20349;-79
2024/03/31 01:23:25;;;;;;;86.38;18.15;;;;;;;;;;6067814;23;20065;-79
2024/03/31 01:25:51;;;;;;;84.47;18.25;;;;;;;;;;6043412;23;20094;-79
2024/03/31 01:28:17;;;;;;;86.47;16.48;;;;;;;;;;6091609;23;20047;-80
2024/03/31 01:30:43;;;;;;;89.22;17.52;;;;;;;;;;6067552;23;20433;-80
2024/03/31 01:33:09;;;;;;;92.50;17.48;;;;;;;;;;6091463;23;20011;-80
2024/03/31 01:35:34;;;;;;;92.53;17.90;;;;;;;;;;6091044;23;20014;-80
2024/03/31 01:38:00;;;;;;;80.30;17.23;;;;;;;;;;6091866;23;19999;-80
2024/03/31 01:40:25;;;;;;;75.82;15.70;;;;;;;;;;6067264;23;20007;-80
2024/03/31 01:42:51;;;;;;;76.03;15.63;;;;;;;;;;6067473;23;20038;-80
2024/03/31 01:45:17;;;;;;;82.97;16.67;;;;;;;;;;6091260;23;20006;-80
2024/03/31 01:47:43;;;;;;;91.03;17.60;;;;;;;;;;6067549;23;20031;-79
2024/03/31 01:50:08;;;;;;;78.55;15.95;;;;;;;;;;6091643;23;20014;-79
2024/03/31 01:52:34;;;;;;;88.97;17.55;;;;;;;;;;6067730;23;20022;-79
2024/03/31 01:55:00;;;;;;;83.63;16.25;;;;;;;;;;6067874;23;20007;-79
2024/03/31 01:57:25;;;;;;;82.40;14.57;;;;;;;;;;6067559;23;20041;-79
2024/03/31 01:59:51;;;;;;;77.45;15.45;;;;;;;;;;6067551;23;20011;-80
2024/03/31 02:02:16;;;;;;;95.65;17.48;;;;;;;;;;6067421;23;20022;-80
2024/03/31 02:04:42;;;;;;;75.90;16.08;;;;;;;;;;6091313;23;20042;-80
2024/03/31 02:07:08;;;;;;;93.90;18.63;;;;;;;;;;6067584;23;20015;-80
2024/03/31 02:09:33;;;;;;;91.35;18.35;;;;;;;;;;6067662;23;20010;-80
2024/03/31 02:11:58;;;;;;;93.85;17.90;;;;;;;;;;6091969;23;20011;-80
2024/03/31 02:14:24;;;;;;;74.35;15.10;;;;;;;;;;6067339;23;20603;-81
2024/03/31 02:16:49;;;;;;;82.65;16.88;;;;;;;;;;6091447;23;20002;-82
2024/03/31 02:19:15;;;;;;;63.90;14.75;;;;;;;;;;6067808;23;20022;-79
2024/03/31 02:21:40;;;;;;;78.35;16.83;;;;;;;;;;6092125;23;20437;-79
2024/03/31 02:24:06;;;;;;;87.60;15.32;;;;;;;;;;6092344;23;20513;-79
2024/03/31 02:26:31;;;;;;;75.75;15.80;;;;;;;;;;6091042;23;20069;-79
2024/03/31 02:28:57;;;;;;;92.85;17.35;;;;;;;;;;6091325;23;20014;-78
2024/03/31 02:31:23;;;;;;;69.25;15.48;;;;;;;;;;6090807;23;20333;-80
2024/03/31 02:33:48;;;;;;;67.50;15.52;;;;;;;;;;6090756;23;20018;-80
2024/03/31 02:36:14;;;;;;;74.97;16.08;;;;;;;;;;6090895;23;20021;-80
2024/03/31 02:38:40;;;;;;;90.32;14.70;;;;;;;;;;6092762;23;20007;-80
2024/03/31 02:41:06;;;;;;;50.40;15.30;;;;;;;;;;6071297;23;20083;-80
2024/03/31 02:43:32;;;;;;;69.07;15.35;;;;;;;;;;6072109;23;20011;-80
2024/03/31 02:45:57;;;;;;;71.75;15.18;;;;;;;;;;6094607;23;20033;-79
2024/03/31 02:48:23;;;;;;;67.10;16.05;;;;;;;;;;6090836;23;20019;-79
2024/03/31 02:50:49;;;;;;;61.25;15.48;;;;;;;;;;6091008;23;20006;-79
2024/03/31 02:53:14;;;;;;;65.40;15.50;;;;;;;;;;6066750;23;20460;-80
2024/03/31 02:55:41;;;;;;;67.68;15.63;;;;;;;;;;6090959;23;20027;-80
2024/03/31 02:58:06;;;;;;;59.97;13.55;;;;;;;;;;6090593;23;20061;-80
2024/03/31 03:00:34;;;;;;;68.22;15.27;;;;;;;;;;6090987;23;20438;-79
2024/03/31 03:02:59;;;;;;;66.35;13.95;;;;;;;;;;6090470;23;20013;-80
2024/03/31 03:05:25;;;;;;;55.28;17.17;;;;;;;;;;6066793;23;20367;-80
2024/03/31 03:07:50;;;;;;;70.30;15.32;;;;;;;;;;6090386;23;20011;-80
2024/03/31 03:10:16;;;;;;;59.25;15.45;;;;;;;;;;6068281;23;20006;-80
2024/03/31 03:12:41;;;;;;;66.47;14.23;;;;;;;;;;6067955;23;20011;-80
2024/03/31 03:15:07;;;;;;;67.78;13.73;;;;;;;;;;6090382;23;20007;-80
2024/03/31 03:17:33;;;;;;;56.25;14.10;;;;;;;;;;6090176;23;20007;-80
2024/03/31 03:19:58;;;;;;;60.65;14.80;;;;;;;;;;6067363;23;20014;-80
2024/03/31 03:22:24;;;;;;;64.32;14.18;;;;;;;;;;6067192;23;20021;-79
2024/03/31 03:24:53;;;;;;;58.85;14.27;;;;;;;;;;6090718;23;20014;-80
2024/03/31 03:27:19;;;;;;;55.28;15.88;;;;;;;;;;6067045;23;20011;-81
2024/03/31 03:29:44;;;;;;;57.72;13.60;;;;;;;;;;6091037;23;20074;-78
2024/03/31 03:32:10;;;;;;;52.13;12.55;;;;;;;;;;6066608;23;20330;-79
2024/03/31 03:34:36;;;;;;;62.17;13.73;;;;;;;;;;6089990;23;20021;-79
2024/03/31 03:37:02;;;;;;;54.22;13.57;;;;;;;;;;6090512;23;20038;-79
2024/03/31 03:39:27;;;;;;;58.90;15.82;;;;;;;;;;6090682;23;19999;-79
2024/03/31 03:41:53;;;;;;;59.00;15.77;;;;;;;;;;6066424;23;20062;-79
2024/03/31 03:44:19;;;;;;;47.97;13.02;;;;;;;;;;6066291;23;20029;-80
2024/03/31 03:46:45;;;;;;;55.20;12.40;;;;;;;;;;6066703;23;20450;-79
2024/03/31 03:49:11;;;;;;;63.33;14.82;;;;;;;;;;6090679;23;20067;-80
2024/03/31 03:51:38;;;;;;;51.97;12.95;;;;;;;;;;6090654;23;20026;-81
2024/03/31 03:54:04;;;;;;;57.83;14.73;;;;;;;;;;6069299;23;20010;-81
2024/03/31 03:56:30;;;;;;;67.82;14.57;;;;;;;;;;6103918;23;20066;-80
2024/03/31 03:58:57;;;;;;;64.22;12.25;;;;;;;;;;6097315;23;20003;-79
2024/03/31 04:01:23;;;;;;;56.45;12.93;;;;;;;;;;6090171;23;20089;-79
2024/03/31 04:03:48;;;;;;;51.47;14.27;;;;;;;;;;6090005;23;20042;-80
2024/03/31 04:06:14;;;;;;;71.53;13.20;;;;;;;;;;6065948;23;20014;-80
2024/03/31 04:08:40;;;;;;;72.10;14.48;;;;;;;;;;6089998;23;20014;-80
2024/03/31 04:11:06;;;;;;;61.65;14.30;;;;;;;;;;6090511;23;20006;-80
2024/03/31 04:13:32;;;;;;;53.08;11.70;;;;;;;;;;6089913;23;20062;-80
2024/03/31 04:15:58;;;;;;;49.13;12.52;;;;;;;;;;6066104;23;20038;-80
2024/03/31 04:18:27;;;;;;;56.63;13.95;;;;;;;;;;6089172;23;20453;-80
2024/03/31 04:20:53;;;;;;;52.72;13.05;;;;;;;;;;6090055;23;20011;-80
2024/03/31 04:23:18;;;;;;;56.72;13.43;;;;;;;;;;6090184;23;20401;-80
2024/03/31 04:25:47;;;;;;;76.90;16.10;;;;;;;;;;6065643;23;20038;-80
2024/03/31 04:28:13;;;;;;;56.90;13.25;;;;;;;;;;6090313;23;20082;-80
2024/03/31 04:30:42;;;;;;;57.60;13.30;;;;;;;;;;6065940;23;20043;-78
2024/03/31 04:33:07;;;;;;;65.07;11.93;;;;;;;;;;6065810;23;20019;-78
2024/03/31 04:35:37;;;;;;;52.83;12.98;;;;;;;;;;6065966;23;20027;-79
2024/03/31 04:38:05;;;;;;;61.72;15.13;;;;;;;;;;6090159;23;20517;-79
2024/03/31 04:40:31;;;;;;;56.58;11.93;;;;;;;;;;6090516;23;20400;-79
2024/03/31 04:42:57;;;;;;;54.45;12.80;;;;;;;;;;6067262;23;20018;-81
2024/03/31 04:45:23;;;;;;;59.67;13.85;;;;;;;;;;6091947;23;20006;-80
2024/03/31 04:47:50;;;;;;;56.85;12.18;;;;;;;;;;6044136;23;20017;-80
2024/03/31 04:50:15;;;;;;;76.30;14.18;;;;;;;;;;6068361;23;20093;-80
2024/03/31 04:52:41;;;;;;;67.38;14.27;;;;;;;;;;6091883;23;20392;-81
2024/03/31 04:55:07;;;;;;;57.08;11.68;;;;;;;;;;6092392;23;20007;-80
2024/03/31 04:57:32;;;;;;;54.40;11.82;;;;;;;;;;6044238;23;20011;-81
2024/03/31 05:00:01;;;;;;;73.93;14.98;;;;;;;;;;6068731;23;20014;-79
2024/03/31 05:02:27;;;;;;;63.47;13.40;;;;;;;;;;6092150;23;20445;-82
2024/03/31 05:04:53;;;;;;;63.25;14.30;;;;;;;;;;6091778;23;20006;-81
2024/03/31 05:07:19;;;;;;;57.97;12.85;;;;;;;;;;6067828;23;20011;-81
2024/03/31 05:09:44;;;;;;;60.08;13.45;;;;;;;;;;6091755;23;20018;-80
2024/03/31 05:12:10;;;;;;;56.60;13.73;;;;;;;;;;6068092;23;20541;-81
2024/03/31 05:14:36;;;;;;;62.72;12.65;;;;;;;;;;6091328;23;20007;-80
2024/03/31 05:17:06;;;;;;;52.47;13.10;;;;;;;;;;6091418;23;20003;-81
2024/03/31 05:19:31;;;;;;;51.53;12.07;;;;;;;;;;6067607;23;20462;-80
2024/03/31 05:21:57;;;;;;;56.22;13.98;;;;;;;;;;6067745;23;20094;-81
2024/03/31 05:24:23;;;;;;;47.05;12.13;;;;;;;;;;6067982;23;20050;-81
2024/03/31 05:26:49;;;;;;;58.55;12.80;;;;;;;;;;6091868;23;20034;-81
2024/03/31 05:29:17;;;;;;;61.72;12.75;;;;;;;;;;6067767;23;20011;-80
2024/03/31 05:31:42;;;;;;;50.78;13.32;;;;;;;;;;6067731;23;20014;-81
2024/03/31 05:34:08;;;;;;;51.65;13.15;;;;;;;;;;6067916;23;20011;-81
2024/03/31 05:36:36;;;;;;;59.92;13.18;;;;;;;;;;6066849;23;20078;-80
2024/03/31 05:39:02;;;;;;;49.92;12.35;;;;;;;;;;6067874;23;20034;-80
2024/03/31 05:41:28;;;;;;;45.60;12.15;;;;;;;;;;6091645;23;20375;-80
2024/03/31 05:43:53;;;;;;;63.15;13.35;;;;;;;;;;6091105;23;20377;-81
2024/03/31 05:46:21;;;;;;;48.17;12.77;;;;;;;;;;6067589;23;20097;-80
2024/03/31 05:48:47;;;;;;;51.80;13.18;;;;;;;;;;6092137;23;20373;-81
2024/03/31 05:51:14;;;;;;;46.55;13.63;;;;;;;;;;6091627;23;20011;-81
2024/03/31 05:53:43;;;;;;;53.97;12.13;;;;;;;;;;6091673;23;20066;-81
2024/03/31 05:56:09;;;;;;;56.63;14.00;;;;;;;;;;6095176;23;20007;-80
2024/03/31 05:58:35;;;;;;;51.60;12.30;;;;;;;;;;6093928;23;20030;-81
2024/03/31 06:01:01;;;;;;;48.83;12.50;;;;;;;;;;6091949;23;20034;-81
2024/03/31 06:03:28;;;;;;;48.45;14.07;;;;;;;;;;6067833;23;20073;-81
2024/03/31 06:05:54;;;;;;;45.20;13.30;;;;;;;;;;6091603;23;20764;-81
2024/03/31 06:08:20;;;;;;;46.85;13.63;;;;;;;;;;6045354;23;20010;-81
2024/03/31 06:10:46;;;;;;;56.13;13.88;;;;;;;;;;6094340;23;20011;-81
2024/03/31 06:13:11;;;;;;;50.20;13.45;;;;;;;;;;6067520;23;20054;-81
2024/03/31 06:15:37;;;;;;;55.85;14.75;;;;;;;;;;6091643;23;20086;-80
2024/03/31 06:18:03;;;;;;;53.22;14.32;;;;;;;;;;6092184;23;20006;-82
2024/03/31 06:20:29;;;;;;;71.47;15.90;;;;;;;;;;6044562;23;20472;-81
2024/03/31 06:22:54;;;;;;;47.08;14.13;;;;;;;;;;6092509;23;20018;-80
2024/03/31 06:25:20;;;;;;;63.88;13.50;;;;;;;;;;6092050;23;20054;-81
2024/03/31 06:27:45;;;;;;;56.75;13.77;;;;;;;;;;6089622;23;20018;-80
2024/03/31 06:30:11;;;;;;;61.72;14.48;;;;;;;;;;6092208;23;20014;-81
2024/03/31 06:32:37;;;;;;;62.03;14.98;;;;;;;;;;6067026;23;20018;-80
2024/03/31 06:35:03;;;;;;;65.70;15.73;;;;;;;;;;6094009;23;20081;-80
2024/03/31 06:37:29;;;;;;;69.47;14.52;;;;;;;;;;6090585;23;20500;-81
2024/03/31 06:39:55;;;;;;;57.92;14.35;;;;;;;;;;6091116;23;20018;-81
2024/03/31 06:42:22;;;;;;;51.95;14.57;;;;;;;;;;6067745;23;20011;-80
2024/03/31 06:44:51;;;;;;;60.80;13.82;;;;;;;;;;6069476;23;20373;-80
2024/03/31 06:47:16;;;;;;;55.97;14.02;;;;;;;;;;6091166;23;20018;-80
2024/03/31 06:49:42;;;;;;;63.55;16.27;;;;;;;;;;6090838;23;20105;-80
2024/03/31 06:52:08;;;;;;;52.92;14.55;;;;;;;;;;6067357;23;20022;-80
2024/03/31 06:54:34;;;;;;;41.60;12.02;;;;;;;;;;6091524;23;20428;-81
2024/03/31 06:57:01;;;;;;;49.47;12.75;;;;;;;;;;6091560;23;20014;-81
2024/03/31 06:59:27;;;;;;;53.55;13.15;;;;;;;;;;6067311;23;20003;-81
2024/03/31 07:01:53;;;;;;;50.08;13.48;;;;;;;;;;6066551;23;20062;-82
2024/03/31 07:04:18;;;;;;;56.55;14.57;;;;;;;;;;6067145;23;20090;-81
2024/03/31 07:06:45;;;;;;;47.28;13.70;;;;;;;;;;6091673;23;20349;-80
2024/03/31 07:09:12;;;;;;;52.97;13.82;;;;;;;;;;6090802;23;20033;-80
2024/03/31 07:11:37;;;;;;;55.00;13.65;;;;;;;;;;6093385;23;20030;-79
2024/03/31 07:14:03;;;;;;;47.60;15.40;;;;;;;;;;6071579;23;20070;-80
2024/03/31 07:16:28;;;;;;;61.13;14.25;;;;;;;;;;6095551;23;20003;-81
2024/03/31 07:18:54;;;;;;;50.55;14.05;;;;;;;;;;6094582;23;20350;-79
2024/03/31 07:21:24;;;;;;;60.10;13.88;;;;;;;;;;6095670;23;20054;-81
2024/03/31 07:23:50;;;;;;;50.03;14.40;;;;;;;;;;6070332;23;20402;-80
2024/03/31 07:26:16;;;;;;;50.45;13.48;;;;;;;;;;6071614;23;20467;-80
2024/03/31 07:28:41;;;;;;;54.67;15.18;;;;;;;;;;6093658;23;20061;-80
2024/03/31 07:31:07;;;;;;;54.85;15.18;;;;;;;;;;6094098;23;20356;-79
2024/03/31 07:33:32;;;;;;;50.47;14.43;;;;;;;;;;6068537;23;20049;-81
2024/03/31 07:35:58;;;;;;;58.63;15.95;;;;;;;;;;6097318;23;20338;-82
2024/03/31 07:38:24;;;;;;;47.70;14.80;;;;;;;;;;6094376;23;20095;-80
2024/03/31 07:40:49;;;;;;;44.60;16.27;;;;;;;;;;6069468;23;20391;-82
2024/03/31 07:43:22;;;;;;;53.65;15.07;;;;;;;;;;6097308;23;20019;-81
2024/03/31 07:45:47;;;;;;;52.92;15.30;;;;;;;;;;6076735;23;20014;-80
2024/03/31 07:48:13;;;;;;;52.97;15.80;;;;;;;;;;6099536;23;20086;-82
2024/03/31 07:50:40;;;;;;;45.65;15.30;;;;;;;;;;6074305;23;20219;-80
2024/03/31 07:53:06;;;;;;;41.92;14.27;;;;;;;;;;6030920;23;20011;-81
2024/03/31 07:55:31;;;;;;;55.97;14.43;;;;;;;;;;6034203;23;20017;-81
2024/03/31 07:57:57;;;;;;;61.00;15.75;;;;;;;;;;6081613;23;20003;-81
2024/03/31 08:00:23;;;;;;;59.78;14.15;;;;;;;;;;6057967;23;20336;-81
2024/03/31 08:02:48;;;;;;;69.47;15.70;;;;;;;;;;6058662;23;20010;-80
2024/03/31 08:05:14;;;;;;;56.88;15.57;;;;;;;;;;6057697;23;20022;-82
2024/03/31 08:07:39;;;;;;;48.83;14.45;;;;;;;;;;6058270;23;20327;-82
2024/03/31 08:10:05;;;;;;;49.10;14.90;;;;;;;;;;6056134;23;20006;-80
2024/03/31 08:12:31;;;;;;;54.58;16.20;;;;;;;;;;6053865;23;20074;-81
2024/03/31 08:14:56;;;;;;;52.42;14.40;;;;;;;;;;6077859;23;20014;-80
2024/03/31 08:17:22;;;;;;;46.65;14.73;;;;;;;;;;6053548;23;20022;-80
2024/03/31 08:19:48;;;;;;;50.97;15.52;;;;;;;;;;6056708;23;20088;-82
2024/03/31 08:22:13;;;;;;;39.47;14.90;;;;;;;;;;6056789;23;20090;-81
2024/03/31 08:24:39;;;;;;;59.28;16.55;;;;;;;;;;6058426;23;20010;-80
2024/03/31 08:27:05;;;;;;;52.00;15.88;;;;;;;;;;6056571;23;20081;-83
2024/03/31 08:29:30;;;;;;;50.60;14.70;;;;;;;;;;6084079;23;20067;-80
2024/03/31 08:31:56;;;;;;;43.72;16.65;;;;;;;;;;6059044;23;20043;-82
2024/03/31 08:34:22;;;;;;;55.92;18.30;;;;;;;;;;6033464;23;20033;-81
2024/03/31 08:36:47;;;;;;;53.13;14.80;;;;;;;;;;6057989;23;20038;-81
2024/03/31 08:39:13;;;;;;;49.65;15.75;;;;;;;;;;6058496;23;20021;-80
2024/03/31 08:41:45;;;;;;;43.72;16.30;;;;;;;;;;6057228;23;20042;-82
2024/03/31 08:44:12;;;;;;;57.33;16.88;;;;;;;;;;6055015;23;20463;-79
2024/03/31 08:46:38;;;;;;;52.35;15.65;;;;;;;;;;6073709;23;20021;-80
2024/03/31 08:49:03;;;;;;;44.67;15.93;;;;;;;;;;6049524;23;20026;-80
2024/03/31 08:51:29;;;;;;;51.03;14.90;;;;;;;;;;6057558;23;20057;-80
2024/03/31 08:53:55;;;;;;;47.00;15.80;;;;;;;;;;6095417;23;20039;-81
2024/03/31 08:56:21;;;;;;;47.15;15.13;;;;;;;;;;6047058;23;20051;-81
2024/03/31 08:58:47;;;;;;;41.83;15.05;;;;;;;;;;6095013;23;20007;-79
2024/03/31 09:01:14;;;;;;;50.45;16.40;;;;;;;;;;6070877;23;20066;-80
2024/03/31 09:03:40;;;;;;;53.35;16.60;;;;;;;;;;6072799;23;20456;-82
2024/03/31 09:06:06;;;;;;;49.03;15.27;;;;;;;;;;6074199;23;20055;-81
2024/03/31 09:08:31;;;;;;;60.47;15.82;;;;;;;;;;6095910;23;20381;-80
2024/03/31 09:10:57;;;;;;;50.53;16.20;;;;;;;;;;6099492;23;20349;-80
2024/03/31 09:13:23;;;;;;;45.35;17.45;;;;;;;;;;6101013;23;20018;-80
2024/03/31 09:15:48;;;;;;;55.85;17.45;;;;;;;;;;6099512;23;20013;-80
2024/03/31 09:18:14;;;;;;;49.92;16.95;;;;;;;;;;6098228;23;20019;-79
2024/03/31 09:20:40;;;;;;;50.60;16.10;;;;;;;;;;6099401;23;20490;-80
2024/03/31 09:23:06;;;;;;;43.33;15.45;;;;;;;;;;6050442;23;20015;-80
2024/03/31 09:25:31;;;;;;;60.38;16.13;;;;;;;;;;6071261;23;20022;-79
2024/03/31 09:28:00;;;;;;;50.50;16.25;;;;;;;;;;6070999;23;20007;-80
2024/03/31 09:30:29;;;;;;;57.03;17.75;;;;;;;;;;6071449;23;20019;-80
2024/03/31 09:32:54;;;;;;;49.03;16.67;;;;;;;;;;6069550;23;20496;-80
2024/03/31 09:35:22;;;;;;;45.22;16.75;;;;;;;;;;6094262;23;20003;-80
2024/03/31 09:37:47;;;;;;;50.33;16.20;;;;;;;;;;6096548;23;20066;-80
2024/03/31 09:40:13;;;;;;;53.03;16.05;;;;;;;;;;6095398;23;20003;-80
2024/03/31 09:42:39;;;;;;;52.22;17.10;;;;;;;;;;6073158;23;20010;-80
2024/03/31 09:45:05;;;;;;;45.33;15.10;;;;;;;;;;6096681;23;20019;-79
2024/03/31 09:47:40;;;;;;;45.42;17.15;;;;;;;;;;6094227;23;20014;-79
2024/03/31 09:50:31;;;;;;;47.95;16.05;;;;;;;;;;6067628;23;20019;-80
2024/03/31 09:53:01;;;;;;;47.42;16.83;;;;;;;;;;6091801;23;20361;-80
2024/03/31 09:55:29;;;;;;;42.92;15.43;;;;;;;;;;6094328;23;20341;-81
2024/03/31 09:57:56;;;;;;;60.37;16.07;;;;;;;;;;6070648;23;20018;-79
2024/03/31 10:00:22;;;;;;;44.05;16.13;;;;;;;;;;6069807;23;20031;-80
2024/03/31 10:03:14;;;;;;;44.67;16.50;;;;;;;;;;6093211;23;20003;-80
2024/03/31 10:05:41;;;;;;;60.20;16.02;;;;;;;;;;6085150;23;20003;-80
2024/03/31 10:08:08;;;;;;;56.40;16.95;;;;;;;;;;6071666;23;20041;-80
2024/03/31 10:10:35;;;;;;;47.92;15.85;;;;;;;;;;6095082;23;20007;-79
2024/03/31 10:13:02;;;;;;;43.75;15.20;;;;;;;;;;6047099;23;20007;-80
2024/03/31 10:15:28;;;;;;;55.08;18.05;;;;;;;;;;6049058;23;20097;-80
2024/03/31 10:17:55;;;;;;;43.17;14.65;;;;;;;;;;6050566;23;20066;-79
2024/03/31 10:20:21;;;;;;;47.40;15.52;;;;;;;;;;6075766;23;20003;-81
2024/03/31 10:22:47;;;;;;;47.40;16.15;;;;;;;;;;6099533;23;20047;-81
2024/03/31 10:25:13;;;;;;;54.38;15.95;;;;;;;;;;6098672;23;20111;-81
2024/03/31 10:27:42;;;;;;;54.53;15.35;;;;;;;;;;6072064;23;20071;-81
2024/03/31 10:30:08;;;;;;;55.55;16.30;;;;;;;;;;6094070;23;20011;-81
2024/03/31 10:32:34;;;;;;;51.85;16.13;;;;;;;;;;6071896;23;20154;-79
2024/03/31 10:35:01;;;;;;;58.63;16.73;;;;;;;;;;6092655;23;20007;-81
2024/03/31 10:37:27;;;;;;;47.58;16.60;;;;;;;;;;6075262;23;20011;-81
2024/03/31 10:39:53;;;;;;;51.50;15.80;;;;;;;;;;6107575;23;20010;-82
2024/03/31 10:42:21;;;;;;;48.47;16.27;;;;;;;;;;6079034;23;20046;-80
2024/03/31 10:44:47;;;;;;;44.65;17.40;;;;;;;;;;6097970;23;20010;-81
2024/03/31 10:47:12;;;;;;;42.75;16.23;;;;;;;;;;6094786;23;20017;-80
2024/03/31 10:49:39;;;;;;;48.28;15.90;;;;;;;;;;6072245;23;20038;-80
2024/03/31 10:52:05;;;;;;;53.40;15.45;;;;;;;;;;6074369;23;20018;-81
2024/03/31 10:54:34;;;;;;;52.13;16.63;;;;;;;;;;6048982;23;20026;-80
2024/03/31 10:57:01;;;;;;;47.85;15.60;;;;;;;;;;6047318;23;20007;-80
2024/03/31 10:59:28;;;;;;;52.78;17.25;;;;;;;;;;6047243;23;20011;-80
2024/03/31 11:01:55;;;;;;;51.50;15.48;;;;;;;;;;6022823;23;20029;-80
2024/03/31 11:04:22;;;;;;;51.65;16.33;;;;;;;;;;6046673;23;20091;-81
2024/03/31 11:06:49;;;;;;;50.85;15.13;;;;;;;;;;6045422;23;20325;-80
2024/03/31 11:09:15;;;;;;;40.20;14.88;;;;;;;;;;6046526;23;20025;-80
2024/03/31 11:11:42;;;;;;;54.67;16.80;;;;;;;;;;6046571;23;20010;-80
2024/03/31 11:14:08;;;;;;;49.72;15.20;;;;;;;;;;6069647;23;20438;-81
2024/03/31 11:16:34;;;;;;;39.88;15.68;;;;;;;;;;6072255;23;20014;-81
2024/03/31 11:19:01;;;;;;;37.22;15.52;;;;;;;;;;6071599;23;20007;-81
2024/03/31 11:21:33;;;;;;;51.60;16.35;;;;;;;;;;6048537;23;20026;-81
2024/03/31 11:24:03;;;;;;;39.33;14.93;;;;;;;;;;6073542;23;20011;-80
2024/03/31 11:26:29;;;;;;;42.10;15.20;;;;;;;;;;6072994;23;20011;-81
2024/03/31 11:28:55;;;;;;;56.88;16.17;;;;;;;;;;6073917;23;20093;-81
2024/03/31 11:31:21;;;;;;;42.88;15.18;;;;;;;;;;6074028;23;20062;-81
2024/03/31 11:33:50;;;;;;;48.63;14.60;;;;;;;;;;6051652;23;20007;-81
2024/03/31 11:36:16;;;;;;;51.53;15.30;;;;;;;;;;6074638;23;20061;-81
2024/03/31 11:38:42;;;;;;;50.90;15.00;;;;;;;;;;6051514;23;20034;-81
2024/03/31 11:41:08;;;;;;;52.92;15.02;;;;;;;;;;6076078;23;20011;-82
2024/03/31 11:43:34;;;;;;;46.22;14.70;;;;;;;;;;6051924;23;20010;-80
2024/03/31 11:46:00;;;;;;;47.40;15.27;;;;;;;;;;6072057;23;20011;-80
2024/03/31 11:48:28;;;;;;;50.47;13.27;;;;;;;;;;6049150;23;20243;-80
2024/03/31 11:50:54;;;;;;;52.63;14.95;;;;;;;;;;6073204;23;20006;-80
2024/03/31 11:53:20;;;;;;;52.13;13.45;;;;;;;;;;6048115;23;20007;-80
2024/03/31 11:55:45;;;;;;;45.05;14.88;;;;;;;;;;6093141;23;20405;-82
2024/03/31 11:58:11;;;;;;;41.80;14.80;;;;;;;;;;6070012;23;20019;-80
2024/03/31 12:00:37;;;;;;;42.17;14.90;;;;;;;;;;6070163;23;20060;-81
2024/03/31 12:03:03;;;;;;;40.28;14.85;;;;;;;;;;6093614;23;20014;-78
2024/03/31 12:05:28;;;;;;;55.45;14.73;;;;;;;;;;6094256;23;20007;-80
2024/03/31 12:07:57;;;;;;;49.33;13.60;;;;;;;;;;6093538;23;20369;-81
2024/03/31 12:10:23;;;;;;;65.75;15.48;;;;;;;;;;6070565;23;20062;-80
2024/03/31 12:12:49;;;;;;;40.70;13.05;;;;;;;;;;6093824;23;20011;-79
2024/03/31 12:15:15;;;;;;;41.70;14.93;;;;;;;;;;6074206;23;20011;-81
2024/03/31 12:17:41;;;;;;;40.13;13.82;;;;;;;;;;6098600;23;20322;-81
2024/03/31 12:20:11;;;;;;;47.50;14.07;;;;;;;;;;6097924;23;20105;-81
2024/03/31 12:22:37;;;;;;;43.05;14.45;;;;;;;;;;6100034;23;20014;-81
2024/03/31 12:25:04;;;;;;;50.33;14.95;;;;;;;;;;6075596;23;20016;-80
2024/03/31 12:27:31;;;;;;;49.00;15.95;;;;;;;;;;6074193;23;20349;-79
2024/03/31 12:29:57;;;;;;;49.55;14.55;;;;;;;;;;6096661;23;20007;-80
2024/03/31 12:32:23;;;;;;;45.67;14.90;;;;;;;;;;6072525;23;20034;-80
2024/03/31 12:34:48;;;;;;;38.63;16.33;;;;;;;;;;6074092;23;20038;-81
2024/03/31 12:37:15;;;;;;;47.80;14.65;;;;;;;;;;6073467;23;20011;-82
2024/03/31 12:39:40;;;;;;;41.95;13.80;;;;;;;;;;6098672;23;20014;-80
2024/03/31 12:42:06;;;;;;;53.95;16.33;;;;;;;;;;6073396;23;20038;-77
2024/03/31 12:44:32;;;;;;;45.08;14.77;;;;;;;;;;6094003;23;20010;-81
2024/03/31 12:46:59;;;;;;;48.17;14.90;;;;;;;;;;6094803;23;20014;-81
2024/03/31 12:49:25;;;;;;;37.38;13.88;;;;;;;;;;6095554;23;20066;-81
2024/03/31 12:51:53;;;;;;;41.58;13.38;;;;;;;;;;6052498;23;20079;-81
2024/03/31 12:54:20;;;;;;;45.85;15.00;;;;;;;;;;6103977;23;20011;-80
2024/03/31 12:56:46;;;;;;;50.60;14.52;;;;;;;;;;6078727;23;20018;-79
2024/03/31 12:59:11;;;;;;;51.30;15.07;;;;;;;;;;6099130;23;20003;-79
2024/03/31 13:01:37;;;;;;;58.10;15.18;;;;;;;;;;6071855;23;20066;-81
2024/03/31 13:04:03;;;;;;;40.40;13.98;;;;;;;;;;6098493;23;20449;-81
2024/03/31 13:06:28;;;;;;;40.50;14.43;;;;;;;;;;6106355;23;20018;-81
2024/03/31 13:08:55;;;;;;;50.15;15.13;;;;;;;;;;6099593;23;20038;-80
2024/03/31 13:11:20;;;;;;;46.20;14.93;;;;;;;;;;6097342;23;20011;-80
2024/03/31 13:13:46;;;;;;;46.65;13.88;;;;;;;;;;6096213;23;20042;-80
2024/03/31 13:16:12;;;;;;;45.30;13.40;;;;;;;;;;6072309;23;20006;-80
2024/03/31 13:18:37;;;;;;;46.78;13.60;;;;;;;;;;6097274;23;20003;-80
2024/03/31 13:21:03;;;;;;;43.97;13.20;;;;;;;;;;6097514;23;20082;-80
2024/03/31 13:23:29;;;;;;;54.28;14.32;;;;;;;;;;6073130;23;20029;-80
2024/03/31 13:25:55;;;;;;;54.60;14.02;;;;;;;;;;6048628;23;20031;-79
2024/03/31 13:28:23;;;;;;;51.00;12.05;;;;;;;;;;6071563;23;20095;-81
2024/03/31 13:30:50;;;;;;;39.25;12.18;;;;;;;;;;6096417;23;20011;-79
2024/03/31 13:33:15;;;;;;;44.42;12.75;;;;;;;;;;6072359;23;20015;-79
2024/03/31 13:35:42;;;;;;;47.35;13.90;;;;;;;;;;6072525;23;20018;-79
2024/03/31 13:38:08;;;;;;;48.90;13.77;;;;;;;;;;6072441;23;20016;-81
2024/03/31 13:40:34;;;;;;;44.60;13.75;;;;;;;;;;6073428;23;20019;-81
2024/03/31 13:43:00;;;;;;;45.60;12.77;;;;;;;;;;6097448;23;20086;-81
2024/03/31 13:45:26;;;;;;;38.65;14.02;;;;;;;;;;6096447;23;20348;-80
2024/03/31 13:47:52;;;;;;;46.15;13.18;;;;;;;;;;6095749;23;20003;-80
2024/03/31 13:50:18;;;;;;;46.13;13.07;;;;;;;;;;6095818;23;20010;-80
2024/03/31 13:52:43;;;;;;;40.05;13.18;;;;;;;;;;6096712;23;20337;-80
2024/03/31 13:55:09;;;;;;;48.05;13.68;;;;;;;;;;6097510;23;20010;-82
2024/03/31 13:57:35;;;;;;;47.25;14.52;;;;;;;;;;6098318;23;20030;-82
2024/03/31 14:00:03;;;;;;;46.60;13.10;;;;;;;;;;6102036;23;20057;-81
2024/03/31 14:02:38;;;;;;;42.10;12.70;;;;;;;;;;6080674;23;20026;-81
2024/03/31 14:05:04;;;;;;;44.92;13.25;;;;;;;;;;6081857;23;20002;-81
2024/03/31 14:07:29;;;;;;;47.22;12.40;;;;;;;;;;6081399;23;20010;-81
2024/03/31 14:09:55;;;;;;;41.88;12.60;;;;;;;;;;6108514;23;20027;-81